createdAt,value
2022-12-18T00:02:33.081Z,99339.88
2022-12-18T00:06:05.227Z,99356.38
2022-12-18T00:09:39.177Z,99338.00
2022-12-18T00:13:06.646Z,99337.16
2022-12-18T00:16:36.284Z,99330.38
2022-12-18T00:20:00.235Z,99342.59
2022-12-18T00:23:30.482Z,99347.78
2022-12-18T00:26:52.232Z,99335.25
2022-12-18T00:30:14.338Z,99342.41
2022-12-18T00:33:37.231Z,99339.56
2022-12-18T00:36:59.283Z,99344.44
2022-12-18T00:40:30.399Z,99341.03
2022-12-18T00:43:52.250Z,99322.91
2022-12-18T00:47:14.058Z,99339.59
2022-12-18T00:50:52.417Z,99336.69
2022-12-18T00:54:20.270Z,99340.47
2022-12-18T00:57:42.689Z,99331.16
2022-12-18T01:01:08.306Z,99329.66
2022-12-18T01:04:33.357Z,99333.34
2022-12-18T01:08:03.382Z,99318.69
2022-12-18T01:11:41.053Z,99309.94
2022-12-18T01:15:04.620Z,99303.88
2022-12-18T01:18:46.055Z,99313.50
2022-12-18T01:22:07.882Z,99316.53
2022-12-18T01:25:32.784Z,99330.31
2022-12-18T01:28:58.947Z,99326.94
2022-12-18T01:32:31.462Z,99318.31
2022-12-18T01:36:01.150Z,99316.81
2022-12-18T01:39:24.286Z,99291.00
2022-12-18T01:42:52.011Z,99319.50
2022-12-18T01:46:17.524Z,99336.72
2022-12-18T01:49:40.523Z,99343.78
2022-12-18T01:53:15.101Z,99339.19
2022-12-18T01:56:38.068Z,99318.44
2022-12-18T02:00:12.588Z,99319.41
2022-12-18T02:03:47.265Z,99330.44
2022-12-18T02:07:44.963Z,99332.16
2022-12-18T02:11:20.966Z,99351.31
2022-12-18T02:15:07.452Z,99342.00
2022-12-18T02:18:45.276Z,99331.75
2022-12-18T02:22:46.943Z,99324.84
2022-12-18T02:26:47.616Z,99325.91
2022-12-18T02:30:10.463Z,99301.00
2022-12-18T02:33:37.051Z,99304.69
2022-12-18T02:37:12.095Z,99311.34
2022-12-18T02:40:39.470Z,99316.72
2022-12-18T02:44:20.130Z,99312.44
2022-12-18T02:47:48.763Z,99327.38
2022-12-18T02:51:45.815Z,99318.94
2022-12-18T02:55:33.548Z,99325.81
2022-12-18T02:59:10.865Z,99329.00
2022-12-18T03:03:13.086Z,99335.91
2022-12-18T03:06:49.376Z,99348.78
2022-12-18T03:10:19.782Z,99344.47
2022-12-18T03:13:54.428Z,99353.56
2022-12-18T03:17:23.313Z,99350.91
2022-12-18T03:20:52.473Z,99325.25
2022-12-18T03:24:30.688Z,99329.25
2022-12-18T03:27:58.794Z,99310.47
2022-12-18T03:31:27.197Z,99325.69
2022-12-18T03:34:53.599Z,99322.16
2022-12-18T03:38:19.635Z,99317.03
2022-12-18T03:42:25.653Z,99331.13
2022-12-18T03:46:03.958Z,99308.72
2022-12-18T03:49:49.445Z,99320.78
2022-12-18T03:53:38.317Z,99330.31
2022-12-18T03:57:13.671Z,99330.53
2022-12-18T04:00:36.645Z,99333.91
2022-12-18T04:04:05.983Z,99328.59
2022-12-18T04:07:34.761Z,99302.75
2022-12-18T04:11:06.022Z,99282.94
2022-12-18T04:14:28.821Z,99274.28
2022-12-18T04:17:52.259Z,99270.75
2022-12-18T04:21:18.012Z,99281.84
2022-12-18T04:24:40.927Z,99293.03
2022-12-18T04:28:14.501Z,99276.63
2022-12-18T04:31:41.538Z,99293.31
2022-12-18T04:35:07.373Z,99298.53
2022-12-18T04:38:30.379Z,99303.66
2022-12-18T04:42:09.645Z,99301.72
2022-12-18T04:45:33.283Z,99298.31
2022-12-18T04:48:57.272Z,99294.56
2022-12-18T04:52:19.108Z,99312.63
2022-12-18T04:55:40.947Z,99294.56
2022-12-18T04:59:02.817Z,99302.47
2022-12-18T05:02:24.920Z,99306.69
2022-12-18T05:05:50.700Z,99303.22
2022-12-18T05:09:12.651Z,99297.19
2022-12-18T05:12:55.502Z,99322.13
2022-12-18T05:16:18.405Z,99329.13
2022-12-18T05:19:40.336Z,99306.75
2022-12-18T05:23:02.144Z,99317.75
2022-12-18T05:26:24.045Z,99311.44
2022-12-18T05:29:45.966Z,99326.88
2022-12-18T05:33:07.842Z,99330.97
2022-12-18T05:36:30.887Z,99345.66
2022-12-18T05:39:52.868Z,99343.81
2022-12-18T05:43:20.790Z,99345.59
2022-12-18T05:46:43.201Z,99352.38
2022-12-18T05:50:05.982Z,99351.69
2022-12-18T05:53:27.792Z,99348.19
2022-12-18T05:57:00.486Z,99348.25
2022-12-18T06:00:22.537Z,99333.47
2022-12-18T06:03:45.416Z,99344.06
2022-12-18T06:07:07.824Z,99343.31
2022-12-18T06:10:29.705Z,99349.69
2022-12-18T06:13:58.622Z,99353.97
2022-12-18T06:17:34.232Z,99348.75
2022-12-18T06:21:05.501Z,99355.19
2022-12-18T06:24:34.162Z,99384.06
2022-12-18T06:27:55.986Z,99375.28
2022-12-18T06:31:17.911Z,99352.69
2022-12-18T06:34:56.311Z,99378.44
2022-12-18T06:38:19.237Z,99382.00
2022-12-18T06:41:41.038Z,99375.16
2022-12-18T06:45:04.277Z,99391.38
2022-12-18T06:48:26.219Z,99384.53
2022-12-18T06:51:48.178Z,99383.78
2022-12-18T06:55:12.338Z,99388.66
2022-12-18T06:58:40.866Z,99399.47
2022-12-18T07:02:05.954Z,99401.59
2022-12-18T07:05:28.037Z,99410.22
2022-12-18T07:08:59.913Z,99404.06
2022-12-18T07:12:24.032Z,99398.78
2022-12-18T07:15:45.855Z,99405.59
2022-12-18T07:19:26.253Z,99390.16
2022-12-18T07:22:52.071Z,99379.69
2022-12-18T07:26:24.584Z,99371.31
2022-12-18T07:29:47.481Z,99371.78
2022-12-18T07:33:10.417Z,99394.97
2022-12-18T07:36:32.381Z,99371.09
2022-12-18T07:39:59.390Z,99371.97
2022-12-18T07:43:21.241Z,99351.00
2022-12-18T07:46:43.188Z,99383.25
2022-12-18T07:50:07.139Z,99376.91
2022-12-18T07:53:30.009Z,99389.78
2022-12-18T07:56:52.703Z,99376.81
2022-12-18T08:00:15.374Z,99378.22
2022-12-18T08:03:39.236Z,99386.84
2022-12-18T08:07:01.215Z,99367.13
2022-12-18T08:10:25.057Z,99350.28
2022-12-18T08:13:46.911Z,99383.19
2022-12-18T08:17:08.783Z,99378.72
2022-12-18T08:20:30.842Z,99389.38
2022-12-18T08:23:55.526Z,99388.22
2022-12-18T08:27:32.743Z,99389.31
2022-12-18T08:30:54.728Z,99388.53
2022-12-18T08:34:17.820Z,99400.59
2022-12-18T08:37:39.661Z,99392.75
2022-12-18T08:41:09.640Z,99401.81
2022-12-18T08:44:40.399Z,99396.78
2022-12-18T08:48:04.291Z,99402.28
2022-12-18T08:51:26.061Z,99415.34
2022-12-18T08:54:47.884Z,99423.84
2022-12-18T08:58:09.702Z,99410.22
2022-12-18T09:01:31.772Z,99403.84
2022-12-18T09:04:57.560Z,99416.63
2022-12-18T09:08:19.633Z,99405.38
2022-12-18T09:11:56.651Z,99399.41
2022-12-18T09:15:20.437Z,99408.22
2022-12-18T09:18:43.407Z,99403.47
2022-12-18T09:22:06.678Z,99402.94
2022-12-18T09:25:36.567Z,99401.84
2022-12-18T09:28:58.422Z,99387.81
2022-12-18T09:32:22.663Z,99393.47
2022-12-18T09:35:46.245Z,99390.69
2022-12-18T09:39:09.207Z,99394.72
2022-12-18T09:42:33.438Z,99387.66
2022-12-18T09:46:12.440Z,99363.00
2022-12-18T09:49:43.854Z,99374.78
2022-12-18T09:53:23.633Z,99366.44
2022-12-18T09:57:02.659Z,99366.41
2022-12-18T10:00:26.409Z,99362.41
2022-12-18T10:03:58.923Z,99366.41
2022-12-18T10:07:40.062Z,99360.13
2022-12-18T10:11:27.603Z,99352.94
2022-12-18T10:15:00.838Z,99357.34
2022-12-18T10:18:51.272Z,99358.63
2022-12-18T10:22:55.960Z,99341.66
2022-12-18T10:26:20.199Z,99313.31
2022-12-18T10:29:50.215Z,99326.81
2022-12-18T10:33:20.026Z,99334.25
2022-12-18T10:36:45.357Z,99329.13
2022-12-18T10:40:21.497Z,99309.28
2022-12-18T10:43:46.276Z,99316.91
2022-12-18T10:47:18.568Z,99302.75
2022-12-18T10:51:09.607Z,99285.47
2022-12-18T10:54:41.430Z,99297.41
2022-12-18T10:58:36.546Z,99294.78
2022-12-18T11:01:59.765Z,99285.81
2022-12-18T11:05:31.175Z,99282.91
2022-12-18T11:09:14.446Z,99283.00
2022-12-18T11:12:44.661Z,99297.28
2022-12-18T11:16:07.791Z,99281.81
2022-12-18T11:19:41.870Z,99286.06
2022-12-18T11:23:14.521Z,99286.72
2022-12-18T11:26:37.127Z,99289.16
2022-12-18T11:30:26.994Z,99294.53
2022-12-18T11:34:30.503Z,99291.03
2022-12-18T11:38:18.343Z,99291.22
2022-12-18T11:42:12.910Z,99269.69
2022-12-18T11:45:44.390Z,99271.25
2022-12-18T11:49:35.419Z,99267.09
2022-12-18T11:53:01.524Z,99266.94
2022-12-18T11:56:48.523Z,99262.16
2022-12-18T12:00:24.118Z,99265.19
2022-12-18T12:04:30.969Z,99255.31
2022-12-18T12:08:20.047Z,99247.38
2022-12-18T12:12:14.450Z,99252.69
2022-12-18T12:16:19.646Z,99239.56
2022-12-18T12:20:03.395Z,99237.69
2022-12-18T12:23:54.968Z,99222.13
2022-12-18T12:28:10.534Z,99232.06
2022-12-18T12:32:09.419Z,99230.84
2022-12-18T12:36:14.217Z,99226.50
2022-12-18T12:39:47.951Z,99229.94
2022-12-18T12:43:36.193Z,99235.69
2022-12-18T12:47:08.292Z,99214.09
2022-12-18T12:50:35.191Z,99227.25
2022-12-18T12:54:00.917Z,99221.22
2022-12-18T12:57:37.949Z,99185.69
2022-12-18T13:01:23.442Z,99224.72
2022-12-18T13:04:53.558Z,99211.66
2022-12-18T13:08:31.646Z,99215.88
2022-12-18T13:12:30.520Z,99208.84
2022-12-18T13:16:12.661Z,99198.31
2022-12-18T13:19:36.229Z,99167.78
2022-12-18T13:22:59.557Z,99171.81
2022-12-18T13:26:28.810Z,99189.09
2022-12-18T13:29:56.903Z,99190.91
2022-12-18T13:33:24.649Z,99184.56
2022-12-18T13:36:52.858Z,99188.88
2022-12-18T13:40:39.737Z,99183.91
2022-12-18T13:48:26.830Z,99187.19
2022-12-18T13:51:57.188Z,99181.53
2022-12-18T13:55:23.379Z,99181.88
2022-12-18T13:58:45.254Z,99173.19
2022-12-18T14:02:22.770Z,99178.31
2022-12-18T14:06:17.632Z,99177.72
2022-12-18T14:10:41.216Z,99179.81
2022-12-18T14:13:43.278Z,99183.22
2022-12-18T14:17:13.678Z,99179.28
2022-12-18T14:20:46.574Z,99157.69
2022-12-18T14:24:22.615Z,99162.78
2022-12-18T14:28:07.586Z,99156.72
2022-12-18T14:31:32.721Z,99151.78
2022-12-18T14:34:57.968Z,99161.59
2022-12-18T14:38:34.040Z,99164.50
2022-12-18T14:42:01.921Z,99177.59
2022-12-18T14:45:47.425Z,99176.41
2022-12-18T14:49:29.730Z,99192.06
2022-12-18T14:52:52.157Z,99181.97
2022-12-18T14:56:24.677Z,99191.34
2022-12-18T14:59:46.623Z,99181.66
2022-12-18T15:03:22.303Z,99187.94
2022-12-18T15:06:49.701Z,99185.63
2022-12-18T15:10:30.174Z,99199.28
2022-12-18T15:13:52.240Z,99183.22
2022-12-18T15:17:23.904Z,99186.91
2022-12-18T15:20:56.026Z,99177.84
2022-12-18T15:24:31.713Z,99177.84
2022-12-18T15:27:53.684Z,99162.53
2022-12-18T15:31:17.426Z,99162.78
2022-12-18T15:34:39.925Z,99167.53
2022-12-18T15:38:04.906Z,99166.19
2022-12-18T15:41:28.315Z,99176.16
2022-12-18T15:44:50.169Z,99163.72
2022-12-18T15:48:24.284Z,99163.19
2022-12-18T15:52:00.627Z,99167.69
2022-12-18T15:55:45.554Z,99173.34
2022-12-18T15:59:18.239Z,99185.78
2022-12-18T16:02:40.293Z,99182.25
2022-12-18T16:06:04.531Z,99185.94
2022-12-18T16:09:26.713Z,99183.97
2022-12-18T16:12:48.916Z,99188.53
2022-12-18T16:16:10.820Z,99186.38
2022-12-18T16:19:34.704Z,99185.06
2022-12-18T16:22:56.620Z,99191.50
2022-12-18T16:26:18.498Z,99184.28
2022-12-18T16:29:40.353Z,99183.38
2022-12-18T16:33:02.205Z,99167.34
2022-12-18T16:36:24.007Z,99180.47
2022-12-18T16:39:45.935Z,99168.69
2022-12-18T16:43:08.034Z,99158.84
2022-12-18T16:46:30.692Z,99173.25
2022-12-18T16:49:53.537Z,99158.31
2022-12-18T16:53:17.544Z,99160.16
2022-12-18T16:56:40.702Z,99158.88
2022-12-18T17:00:06.273Z,99149.06
2022-12-18T17:03:30.302Z,99145.69
2022-12-18T17:06:59.294Z,99129.72
2022-12-18T17:10:21.103Z,99112.03
2022-12-18T17:13:43.411Z,99121.44
2022-12-18T17:17:25.900Z,99099.16
2022-12-18T17:20:47.851Z,99117.66
2022-12-18T17:24:16.980Z,99115.03
2022-12-18T17:27:45.171Z,99110.44
2022-12-18T17:31:18.124Z,99115.88
2022-12-18T17:34:42.052Z,99125.03
2022-12-18T17:38:04.988Z,99114.06
2022-12-18T17:41:32.019Z,99112.72
2022-12-18T17:44:53.912Z,99101.84
2022-12-18T17:48:18.105Z,99108.25
2022-12-18T17:51:42.859Z,99112.44
2022-12-18T17:55:07.994Z,99111.00
2022-12-18T17:58:32.013Z,99119.28
2022-12-18T18:01:57.043Z,99114.63
2022-12-18T18:05:22.433Z,99105.47
2022-12-18T18:08:44.453Z,99077.22
2022-12-18T18:12:25.936Z,99087.41
2022-12-18T18:15:57.137Z,99091.97
2022-12-18T18:19:24.385Z,99092.63
2022-12-18T18:22:46.312Z,99090.78
2022-12-18T18:26:13.181Z,99093.78
2022-12-18T18:29:36.378Z,99091.78
2022-12-18T18:33:11.836Z,99093.84
2022-12-18T18:36:34.092Z,99098.63
2022-12-18T18:39:57.021Z,99104.44
2022-12-18T18:43:20.878Z,99104.25
2022-12-18T18:46:42.882Z,99107.34
2022-12-18T18:50:12.852Z,99095.28
2022-12-18T18:53:40.872Z,99099.41
2022-12-18T18:57:20.399Z,99073.59
2022-12-18T19:00:42.905Z,99060.22
2022-12-18T19:04:05.495Z,99077.22
2022-12-18T19:07:30.365Z,99076.59
2022-12-18T19:10:59.346Z,99077.22
2022-12-18T19:14:23.919Z,99081.31
2022-12-18T19:17:47.250Z,99073.03
2022-12-18T19:21:11.008Z,99071.94
2022-12-18T19:24:46.104Z,99057.66
2022-12-18T19:28:21.306Z,99060.69
2022-12-18T19:31:45.090Z,99072.59
2022-12-18T19:35:07.657Z,99028.22
2022-12-18T19:38:31.261Z,99061.00
2022-12-18T19:41:53.384Z,99063.59
2022-12-18T19:45:18.393Z,99066.22
2022-12-18T19:48:44.928Z,99068.41
2022-12-18T19:52:12.783Z,99067.00
2022-12-18T19:55:42.365Z,99072.09
2022-12-18T19:59:11.913Z,99071.34
2022-12-18T20:02:36.501Z,99042.53
2022-12-18T20:06:15.548Z,99080.22
2022-12-18T20:09:38.963Z,99056.09
2022-12-18T20:13:09.711Z,99087.25
2022-12-18T20:16:38.827Z,99082.09
2022-12-18T20:20:01.039Z,99083.09
2022-12-18T20:23:25.476Z,99060.91
2022-12-18T20:26:58.371Z,99074.69
2022-12-18T20:30:22.459Z,99067.16
2022-12-18T20:33:47.660Z,99051.78
2022-12-18T20:37:10.724Z,99066.47
2022-12-18T20:40:34.674Z,99066.28
2022-12-18T20:43:58.614Z,99079.00
2022-12-18T20:47:23.886Z,99072.91
2022-12-18T20:51:06.991Z,99065.19
2022-12-18T20:54:30.014Z,99067.00
2022-12-18T20:57:58.387Z,99064.38
2022-12-18T21:01:30.446Z,99075.25
2022-12-18T21:04:57.095Z,99049.56
2022-12-18T21:08:21.007Z,99054.31
2022-12-18T21:12:01.730Z,99083.84
2022-12-18T21:15:28.706Z,99097.47
2022-12-18T21:18:54.461Z,99091.81
2022-12-18T21:22:17.210Z,99067.75
2022-12-18T21:25:39.215Z,99092.16
2022-12-18T21:29:05.899Z,99053.47
2022-12-18T21:32:29.845Z,99076.59
2022-12-18T21:35:55.434Z,99067.56
2022-12-18T21:39:24.355Z,99072.84
2022-12-18T21:43:06.988Z,99082.34
2022-12-18T21:46:38.314Z,99060.31
2022-12-18T21:50:01.425Z,99053.72
2022-12-18T21:53:34.404Z,99063.44
2022-12-18T21:57:03.718Z,99053.06
2022-12-18T22:00:28.062Z,99030.19
2022-12-18T22:04:00.760Z,99072.88
2022-12-18T22:07:23.648Z,99069.94
2022-12-18T22:10:49.568Z,99060.78
2022-12-18T22:14:11.955Z,99052.38
2022-12-18T22:17:41.649Z,99064.16
2022-12-18T22:21:06.405Z,99058.75
2022-12-18T22:24:29.224Z,99036.78
2022-12-18T22:28:10.616Z,99051.34
2022-12-18T22:31:32.680Z,99048.88
2022-12-18T22:35:09.133Z,99042.41
2022-12-18T22:38:34.006Z,99020.97
2022-12-18T22:42:01.757Z,99031.16
2022-12-18T22:45:25.842Z,99008.78
2022-12-18T22:48:47.839Z,99018.88
2022-12-18T22:52:10.232Z,99006.56
2022-12-18T22:55:44.542Z,98986.81
2022-12-18T22:59:15.340Z,99009.34
2022-12-18T23:02:37.297Z,99013.25
2022-12-18T23:06:10.407Z,99000.66
2022-12-18T23:09:35.119Z,99011.22
2022-12-18T23:13:12.454Z,99016.72
2022-12-18T23:16:50.801Z,99019.38
2022-12-18T23:20:15.045Z,99013.78
2022-12-18T23:23:45.552Z,99013.25
2022-12-18T23:27:11.362Z,98980.91
2022-12-18T23:30:40.929Z,99001.19
2022-12-18T23:34:06.366Z,98991.69
2022-12-18T23:37:57.433Z,98975.47
2022-12-18T23:41:15.194Z,98979.44
2022-12-18T23:44:43.103Z,98977.34
2022-12-18T23:48:04.982Z,98988.53
2022-12-18T23:51:29.136Z,98974.19
2022-12-18T23:54:52.085Z,98969.84
2022-12-18T23:58:22.294Z,98958.44
